Terminal Aerodrome Forecast
Issued by NWS Grand Junction, CO

Home | Current Version | Previous Version | Text Only | Print | Product List | Glossary On
Versions: 1 2 3 4 5 6 7 8 9 10 11 12 13 14
000
FTUS45 KGJT 050520
TAFGJT
TAF
KGJT 050520Z 0506/0606 07007KT P6SM FEW250
     FM050900 11014KT P6SM SCT250
     FM051700 16009KT P6SM SCT250
     FM052000 23010G20KT P6SM SCT250
     FM060200 12009KT P6SM BKN250=

USA.gov is the U.S. government's official web portal to all federal, state and local government web resources and services.